sensor_id;sensor_type;location;lat;lon;timestamp;P1;durP1;ratioP1;P2;durP2;ratioP2
44774;SDS011;31340;51.402;0.016;2023-11-19T00:00:10;46.95;;;7.43;;
44774;SDS011;31340;51.402;0.016;2023-11-19T00:02:40;61.13;;;9.13;;
44774;SDS011;31340;51.402;0.016;2023-11-19T00:05:09;44.92;;;7.38;;
44774;SDS011;31340;51.402;0.016;2023-11-19T00:07:39;59.03;;;8.57;;
44774;SDS011;31340;51.402;0.016;2023-11-19T00:10:12;63.40;;;8.40;;
44774;SDS011;31340;51.402;0.016;2023-11-19T00:12:41;58.08;;;9.48;;
44774;SDS011;31340;51.402;0.016;2023-11-19T00:15:11;56.13;;;9.68;;
44774;SDS011;31340;51.402;0.016;2023-11-19T00:17:40;62.20;;;9.57;;
44774;SDS011;31340;51.402;0.016;2023-11-19T00:20:12;56.78;;;8.85;;
44774;SDS011;31340;51.402;0.016;2023-11-19T00:22:41;58.92;;;8.60;;
44774;SDS011;31340;51.402;0.016;2023-11-19T00:25:12;60.63;;;7.88;;
44774;SDS011;31340;51.402;0.016;2023-11-19T00:27:40;55.60;;;7.88;;
44774;SDS011;31340;51.402;0.016;2023-11-19T00:30:12;46.33;;;7.32;;
44774;SDS011;31340;51.402;0.016;2023-11-19T00:32:41;49.03;;;8.27;;
44774;SDS011;31340;51.402;0.016;2023-11-19T00:35:09;47.60;;;6.90;;
44774;SDS011;31340;51.402;0.016;2023-11-19T00:37:42;49.15;;;7.60;;
44774;SDS011;31340;51.402;0.016;2023-11-19T00:40:10;54.95;;;8.73;;
44774;SDS011;31340;51.402;0.016;2023-11-19T00:42:38;47.85;;;9.40;;
44774;SDS011;31340;51.402;0.016;2023-11-19T00:45:06;49.03;;;8.98;;
44774;SDS011;31340;51.402;0.016;2023-11-19T00:47:39;48.72;;;8.15;;
44774;SDS011;31340;51.402;0.016;2023-11-19T00:50:07;55.30;;;8.15;;
44774;SDS011;31340;51.402;0.016;2023-11-19T00:52:37;57.78;;;8.35;;
44774;SDS011;31340;51.402;0.016;2023-11-19T00:55:05;54.70;;;8.32;;
44774;SDS011;31340;51.402;0.016;2023-11-19T00:57:34;59.10;;;8.73;;
44774;SDS011;31340;51.402;0.016;2023-11-19T01:00:03;55.95;;;8.63;;
44774;SDS011;31340;51.402;0.016;2023-11-19T01:02:47;54.13;;;8.85;;
44774;SDS011;31340;51.402;0.016;2023-11-19T01:05:19;51.65;;;10.30;;
44774;SDS011;31340;51.402;0.016;2023-11-19T01:07:50;50.00;;;8.82;;
44774;SDS011;31340;51.402;0.016;2023-11-19T01:10:21;61.95;;;10.23;;
44774;SDS011;31340;51.402;0.016;2023-11-19T01:12:49;60.67;;;8.80;;
44774;SDS011;31340;51.402;0.016;2023-11-19T01:15:17;51.10;;;9.38;;
44774;SDS011;31340;51.402;0.016;2023-11-19T01:20:19;57.75;;;8.38;;
44774;SDS011;31340;51.402;0.016;2023-11-19T01:22:47;61.75;;;7.80;;
44774;SDS011;31340;51.402;0.016;2023-11-19T01:25:16;55.35;;;9.00;;
44774;SDS011;31340;51.402;0.016;2023-11-19T01:27:44;65.22;;;10.77;;
44774;SDS011;31340;51.402;0.016;2023-11-19T01:30:12;49.17;;;8.75;;
44774;SDS011;31340;51.402;0.016;2023-11-19T01:32:40;71.85;;;10.82;;
44774;SDS011;31340;51.402;0.016;2023-11-19T01:35:08;58.53;;;7.65;;
44774;SDS011;31340;51.402;0.016;2023-11-19T01:37:36;49.90;;;8.88;;
44774;SDS011;31340;51.402;0.016;2023-11-19T01:40:04;56.50;;;9.73;;
44774;SDS011;31340;51.402;0.016;2023-11-19T01:42:37;56.70;;;9.13;;
44774;SDS011;31340;51.402;0.016;2023-11-19T01:45:08;66.97;;;8.65;;
44774;SDS011;31340;51.402;0.016;2023-11-19T01:47:37;54.15;;;9.38;;
44774;SDS011;31340;51.402;0.016;2023-11-19T01:50:06;57.67;;;9.82;;
44774;SDS011;31340;51.402;0.016;2023-11-19T01:52:35;56.90;;;8.40;;
44774;SDS011;31340;51.402;0.016;2023-11-19T01:55:06;56.25;;;7.88;;
44774;SDS011;31340;51.402;0.016;2023-11-19T01:57:37;50.60;;;8.93;;
44774;SDS011;31340;51.402;0.016;2023-11-19T02:00:08;73.05;;;9.45;;
44774;SDS011;31340;51.402;0.016;2023-11-19T02:02:40;52.38;;;8.57;;
44774;SDS011;31340;51.402;0.016;2023-11-19T02:05:09;54.58;;;7.32;;
44774;SDS011;31340;51.402;0.016;2023-11-19T02:07:38;45.85;;;8.00;;
44774;SDS011;31340;51.402;0.016;2023-11-19T02:10:06;46.50;;;7.88;;
44774;SDS011;31340;51.402;0.016;2023-11-19T02:12:34;49.67;;;7.90;;
44774;SDS011;31340;51.402;0.016;2023-11-19T02:15:02;54.42;;;9.20;;
44774;SDS011;31340;51.402;0.016;2023-11-19T02:17:30;54.33;;;8.48;;
44774;SDS011;31340;51.402;0.016;2023-11-19T02:19:59;46.80;;;7.68;;
44774;SDS011;31340;51.402;0.016;2023-11-19T02:22:34;47.10;;;8.63;;
44774;SDS011;31340;51.402;0.016;2023-11-19T02:25:07;40.08;;;8.98;;
44774;SDS011;31340;51.402;0.016;2023-11-19T02:30:08;50.78;;;8.85;;
44774;SDS011;31340;51.402;0.016;2023-11-19T02:32:37;54.08;;;7.78;;
44774;SDS011;31340;51.402;0.016;2023-11-19T02:35:07;61.50;;;8.88;;
44774;SDS011;31340;51.402;0.016;2023-11-19T02:37:35;54.58;;;8.52;;
44774;SDS011;31340;51.402;0.016;2023-11-19T02:40:03;58.80;;;7.80;;
44774;SDS011;31340;51.402;0.016;2023-11-19T02:42:33;56.97;;;8.13;;
44774;SDS011;31340;51.402;0.016;2023-11-19T02:45:00;48.72;;;7.80;;
44774;SDS011;31340;51.402;0.016;2023-11-19T02:47:29;55.58;;;8.07;;
44774;SDS011;31340;51.402;0.016;2023-11-19T02:49:57;55.15;;;7.55;;
44774;SDS011;31340;51.402;0.016;2023-11-19T02:52:25;59.33;;;7.80;;
44774;SDS011;31340;51.402;0.016;2023-11-19T02:54:53;42.50;;;6.45;;
44774;SDS011;31340;51.402;0.016;2023-11-19T02:57:21;54.13;;;9.60;;
44774;SDS011;31340;51.402;0.016;2023-11-19T02:59:49;60.63;;;7.95;;
44774;SDS011;31340;51.402;0.016;2023-11-19T03:02:17;52.08;;;7.85;;
44774;SDS011;31340;51.402;0.016;2023-11-19T03:04:45;45.92;;;8.63;;
44774;SDS011;31340;51.402;0.016;2023-11-19T03:07:13;52.72;;;7.40;;
44774;SDS011;31340;51.402;0.016;2023-11-19T03:09:40;39.25;;;7.00;;
44774;SDS011;31340;51.402;0.016;2023-11-19T03:12:08;48.13;;;8.65;;
44774;SDS011;31340;51.402;0.016;2023-11-19T03:14:36;52.83;;;8.27;;
44774;SDS011;31340;51.402;0.016;2023-11-19T03:17:04;41.35;;;6.72;;
44774;SDS011;31340;51.402;0.016;2023-11-19T03:19:32;42.38;;;6.45;;
44774;SDS011;31340;51.402;0.016;2023-11-19T03:22:01;42.92;;;7.57;;
44774;SDS011;31340;51.402;0.016;2023-11-19T03:24:29;51.80;;;7.45;;
44774;SDS011;31340;51.402;0.016;2023-11-19T03:26:57;53.05;;;7.30;;
44774;SDS011;31340;51.402;0.016;2023-11-19T03:29:24;50.92;;;9.70;;
44774;SDS011;31340;51.402;0.016;2023-11-19T03:31:53;47.85;;;7.32;;
44774;SDS011;31340;51.402;0.016;2023-11-19T03:34:20;56.55;;;8.05;;
44774;SDS011;31340;51.402;0.016;2023-11-19T03:36:48;57.67;;;8.15;;
44774;SDS011;31340;51.402;0.016;2023-11-19T03:39:16;58.40;;;8.15;;
44774;SDS011;31340;51.402;0.016;2023-11-19T03:41:45;53.00;;;8.23;;
44774;SDS011;31340;51.402;0.016;2023-11-19T03:44:15;42.38;;;6.45;;
44774;SDS011;31340;51.402;0.016;2023-11-19T03:46:42;59.53;;;7.85;;
44774;SDS011;31340;51.402;0.016;2023-11-19T03:49:10;43.78;;;7.40;;
44774;SDS011;31340;51.402;0.016;2023-11-19T03:51:39;54.60;;;8.38;;
44774;SDS011;31340;51.402;0.016;2023-11-19T03:54:06;48.88;;;7.97;;
44774;SDS011;31340;51.402;0.016;2023-11-19T03:56:34;52.08;;;7.05;;
44774;SDS011;31340;51.402;0.016;2023-11-19T03:59:01;51.30;;;7.68;;
44774;SDS011;31340;51.402;0.016;2023-11-19T04:01:29;56.58;;;9.02;;
44774;SDS011;31340;51.402;0.016;2023-11-19T04:03:56;44.70;;;7.80;;
44774;SDS011;31340;51.402;0.016;2023-11-19T04:06:25;51.47;;;8.00;;
44774;SDS011;31340;51.402;0.016;2023-11-19T04:08:53;59.10;;;10.20;;
44774;SDS011;31340;51.402;0.016;2023-11-19T04:11:20;44.08;;;6.75;;
44774;SDS011;31340;51.402;0.016;2023-11-19T04:13:48;43.60;;;8.30;;
44774;SDS011;31340;51.402;0.016;2023-11-19T04:16:15;47.85;;;7.82;;
44774;SDS011;31340;51.402;0.016;2023-11-19T04:18:43;44.03;;;7.70;;
44774;SDS011;31340;51.402;0.016;2023-11-19T04:21:10;61.03;;;7.85;;
44774;SDS011;31340;51.402;0.016;2023-11-19T04:23:38;54.42;;;7.63;;
44774;SDS011;31340;51.402;0.016;2023-11-19T04:26:07;51.90;;;7.95;;
44774;SDS011;31340;51.402;0.016;2023-11-19T04:28:37;49.28;;;9.02;;
44774;SDS011;31340;51.402;0.016;2023-11-19T04:31:05;48.63;;;7.93;;
44774;SDS011;31340;51.402;0.016;2023-11-19T04:33:33;40.72;;;6.82;;
44774;SDS011;31340;51.402;0.016;2023-11-19T04:36:00;46.42;;;8.32;;
44774;SDS011;31340;51.402;0.016;2023-11-19T04:38:29;55.15;;;7.55;;
44774;SDS011;31340;51.402;0.016;2023-11-19T04:40:57;46.13;;;7.78;;
44774;SDS011;31340;51.402;0.016;2023-11-19T04:43:25;51.03;;;8.25;;
44774;SDS011;31340;51.402;0.016;2023-11-19T04:45:53;47.05;;;7.63;;
44774;SDS011;31340;51.402;0.016;2023-11-19T04:48:20;48.42;;;8.25;;
44774;SDS011;31340;51.402;0.016;2023-11-19T04:50:48;49.97;;;7.05;;
44774;SDS011;31340;51.402;0.016;2023-11-19T04:53:17;50.05;;;6.88;;
44774;SDS011;31340;51.402;0.016;2023-11-19T04:55:44;47.30;;;7.45;;
44774;SDS011;31340;51.402;0.016;2023-11-19T04:58:12;43.15;;;7.57;;
44774;SDS011;31340;51.402;0.016;2023-11-19T05:00:40;55.67;;;9.77;;
44774;SDS011;31340;51.402;0.016;2023-11-19T05:03:07;49.10;;;7.82;;
44774;SDS011;31340;51.402;0.016;2023-11-19T05:05:35;48.30;;;7.63;;
44774;SDS011;31340;51.402;0.016;2023-11-19T05:08:03;55.55;;;7.72;;
44774;SDS011;31340;51.402;0.016;2023-11-19T05:10:30;47.15;;;7.85;;
44774;SDS011;31340;51.402;0.016;2023-11-19T05:12:59;44.42;;;6.35;;
44774;SDS011;31340;51.402;0.016;2023-11-19T05:15:26;52.35;;;6.93;;
44774;SDS011;31340;51.402;0.016;2023-11-19T05:17:54;50.13;;;9.05;;
44774;SDS011;31340;51.402;0.016;2023-11-19T05:20:22;46.10;;;6.80;;
44774;SDS011;31340;51.402;0.016;2023-11-19T05:22:49;52.95;;;8.40;;
44774;SDS011;31340;51.402;0.016;2023-11-19T05:25:18;54.70;;;7.75;;
44774;SDS011;31340;51.402;0.016;2023-11-19T05:27:47;45.30;;;6.72;;
44774;SDS011;31340;51.402;0.016;2023-11-19T05:30:14;44.08;;;6.45;;
44774;SDS011;31340;51.402;0.016;2023-11-19T05:32:42;44.45;;;6.72;;
44774;SDS011;31340;51.402;0.016;2023-11-19T05:35:11;52.22;;;7.28;;
44774;SDS011;31340;51.402;0.016;2023-11-19T05:37:38;47.55;;;7.40;;
44774;SDS011;31340;51.402;0.016;2023-11-19T05:40:06;59.08;;;8.10;;
44774;SDS011;31340;51.402;0.016;2023-11-19T05:42:41;50.03;;;6.35;;
44774;SDS011;31340;51.402;0.016;2023-11-19T05:45:10;54.97;;;7.60;;
44774;SDS011;31340;51.402;0.016;2023-11-19T05:47:38;58.20;;;8.23;;
44774;SDS011;31340;51.402;0.016;2023-11-19T05:50:06;41.67;;;7.03;;
44774;SDS011;31340;51.402;0.016;2023-11-19T05:52:35;46.83;;;7.65;;
44774;SDS011;31340;51.402;0.016;2023-11-19T05:55:03;42.72;;;7.45;;
44774;SDS011;31340;51.402;0.016;2023-11-19T05:57:32;48.80;;;8.63;;
44774;SDS011;31340;51.402;0.016;2023-11-19T06:02:42;42.33;;;6.38;;
44774;SDS011;31340;51.402;0.016;2023-11-19T06:05:09;47.17;;;6.55;;
44774;SDS011;31340;51.402;0.016;2023-11-19T06:07:37;42.03;;;7.82;;
44774;SDS011;31340;51.402;0.016;2023-11-19T06:10:06;48.65;;;7.43;;
44774;SDS011;31340;51.402;0.016;2023-11-19T06:12:36;43.30;;;7.05;;
44774;SDS011;31340;51.402;0.016;2023-11-19T06:15:05;58.25;;;7.85;;
44774;SDS011;31340;51.402;0.016;2023-11-19T06:17:33;78.03;;;8.60;;
44774;SDS011;31340;51.402;0.016;2023-11-19T06:20:01;45.42;;;7.90;;
44774;SDS011;31340;51.402;0.016;2023-11-19T06:22:31;46.88;;;7.18;;
44774;SDS011;31340;51.402;0.016;2023-11-19T06:24:59;46.13;;;5.82;;
44774;SDS011;31340;51.402;0.016;2023-11-19T06:27:27;54.47;;;7.45;;
44774;SDS011;31340;51.402;0.016;2023-11-19T06:29:55;40.13;;;6.28;;
44774;SDS011;31340;51.402;0.016;2023-11-19T06:32:23;47.20;;;6.75;;
44774;SDS011;31340;51.402;0.016;2023-11-19T06:34:51;51.55;;;7.45;;
44774;SDS011;31340;51.402;0.016;2023-11-19T06:37:19;54.28;;;7.78;;
44774;SDS011;31340;51.402;0.016;2023-11-19T06:39:46;46.83;;;6.63;;
44774;SDS011;31340;51.402;0.016;2023-11-19T06:42:14;34.88;;;5.90;;
44774;SDS011;31340;51.402;0.016;2023-11-19T06:44:41;38.60;;;6.38;;
44774;SDS011;31340;51.402;0.016;2023-11-19T06:47:09;45.08;;;6.35;;
44774;SDS011;31340;51.402;0.016;2023-11-19T06:49:36;44.58;;;7.07;;
44774;SDS011;31340;51.402;0.016;2023-11-19T06:52:04;37.70;;;5.70;;
44774;SDS011;31340;51.402;0.016;2023-11-19T06:54:32;39.47;;;6.40;;
44774;SDS011;31340;51.402;0.016;2023-11-19T06:57:00;42.17;;;5.43;;
44774;SDS011;31340;51.402;0.016;2023-11-19T06:59:28;41.10;;;6.30;;
44774;SDS011;31340;51.402;0.016;2023-11-19T07:01:56;37.75;;;5.93;;
44774;SDS011;31340;51.402;0.016;2023-11-19T07:04:23;37.25;;;5.25;;
44774;SDS011;31340;51.402;0.016;2023-11-19T07:06:51;38.10;;;6.20;;
44774;SDS011;31340;51.402;0.016;2023-11-19T07:09:20;42.58;;;6.82;;
44774;SDS011;31340;51.402;0.016;2023-11-19T07:11:48;37.55;;;7.32;;
44774;SDS011;31340;51.402;0.016;2023-11-19T07:14:19;32.92;;;5.20;;
44774;SDS011;31340;51.402;0.016;2023-11-19T07:16:47;44.85;;;6.63;;
44774;SDS011;31340;51.402;0.016;2023-11-19T07:19:17;31.27;;;5.35;;
44774;SDS011;31340;51.402;0.016;2023-11-19T07:21:44;42.03;;;5.55;;
44774;SDS011;31340;51.402;0.016;2023-11-19T07:24:12;41.03;;;6.25;;
44774;SDS011;31340;51.402;0.016;2023-11-19T07:26:43;37.65;;;5.60;;
44774;SDS011;31340;51.402;0.016;2023-11-19T07:29:15;38.00;;;4.72;;
44774;SDS011;31340;51.402;0.016;2023-11-19T07:31:49;33.90;;;5.05;;
44774;SDS011;31340;51.402;0.016;2023-11-19T07:34:16;35.17;;;7.00;;
44774;SDS011;31340;51.402;0.016;2023-11-19T07:36:44;29.20;;;4.97;;
44774;SDS011;31340;51.402;0.016;2023-11-19T07:39:11;35.45;;;5.20;;
44774;SDS011;31340;51.402;0.016;2023-11-19T07:41:39;31.90;;;5.53;;
44774;SDS011;31340;51.402;0.016;2023-11-19T07:44:07;28.92;;;4.82;;
44774;SDS011;31340;51.402;0.016;2023-11-19T07:46:34;34.05;;;5.22;;
44774;SDS011;31340;51.402;0.016;2023-11-19T07:49:02;34.60;;;5.45;;
44774;SDS011;31340;51.402;0.016;2023-11-19T07:51:30;28.02;;;4.88;;
44774;SDS011;31340;51.402;0.016;2023-11-19T07:53:57;29.77;;;4.30;;
44774;SDS011;31340;51.402;0.016;2023-11-19T07:56:25;30.60;;;4.90;;
44774;SDS011;31340;51.402;0.016;2023-11-19T07:58:53;25.80;;;5.30;;
44774;SDS011;31340;51.402;0.016;2023-11-19T08:01:20;39.15;;;5.75;;
44774;SDS011;31340;51.402;0.016;2023-11-19T08:03:48;29.08;;;4.60;;
44774;SDS011;31340;51.402;0.016;2023-11-19T08:06:18;28.17;;;6.10;;
44774;SDS011;31340;51.402;0.016;2023-11-19T08:08:46;35.22;;;5.10;;
44774;SDS011;31340;51.402;0.016;2023-11-19T08:11:14;38.65;;;4.82;;
44774;SDS011;31340;51.402;0.016;2023-11-19T08:13:42;29.02;;;4.95;;
44774;SDS011;31340;51.402;0.016;2023-11-19T08:16:10;33.75;;;5.60;;
44774;SDS011;31340;51.402;0.016;2023-11-19T08:18:38;30.13;;;4.75;;
44774;SDS011;31340;51.402;0.016;2023-11-19T08:21:08;27.35;;;4.78;;
44774;SDS011;31340;51.402;0.016;2023-11-19T08:23:36;26.63;;;4.88;;
44774;SDS011;31340;51.402;0.016;2023-11-19T08:26:05;37.80;;;5.38;;
44774;SDS011;31340;51.402;0.016;2023-11-19T08:28:34;22.17;;;4.80;;
44774;SDS011;31340;51.402;0.016;2023-11-19T08:31:02;34.60;;;5.07;;
44774;SDS011;31340;51.402;0.016;2023-11-19T08:33:32;30.52;;;5.05;;
44774;SDS011;31340;51.402;0.016;2023-11-19T08:35:59;29.00;;;5.57;;
44774;SDS011;31340;51.402;0.016;2023-11-19T08:38:27;30.83;;;4.90;;
44774;SDS011;31340;51.402;0.016;2023-11-19T08:40:58;33.55;;;4.50;;
44774;SDS011;31340;51.402;0.016;2023-11-19T08:43:28;46.75;;;5.95;;
44774;SDS011;31340;51.402;0.016;2023-11-19T08:45:56;39.53;;;4.97;;
44774;SDS011;31340;51.402;0.016;2023-11-19T08:48:23;34.83;;;6.20;;
44774;SDS011;31340;51.402;0.016;2023-11-19T08:50:51;31.42;;;4.75;;
44774;SDS011;31340;51.402;0.016;2023-11-19T08:53:18;33.50;;;4.53;;
44774;SDS011;31340;51.402;0.016;2023-11-19T08:55:46;28.95;;;4.65;;
44774;SDS011;31340;51.402;0.016;2023-11-19T08:58:14;35.70;;;6.03;;
44774;SDS011;31340;51.402;0.016;2023-11-19T09:00:41;25.80;;;5.50;;
44774;SDS011;31340;51.402;0.016;2023-11-19T09:03:09;26.92;;;5.75;;
44774;SDS011;31340;51.402;0.016;2023-11-19T09:05:37;35.50;;;6.57;;
44774;SDS011;31340;51.402;0.016;2023-11-19T09:08:06;28.58;;;5.68;;
44774;SDS011;31340;51.402;0.016;2023-11-19T09:10:33;32.10;;;5.05;;
44774;SDS011;31340;51.402;0.016;2023-11-19T09:13:01;42.80;;;6.45;;
44774;SDS011;31340;51.402;0.016;2023-11-19T09:15:29;38.47;;;5.88;;
44774;SDS011;31340;51.402;0.016;2023-11-19T09:17:56;35.40;;;5.82;;
44774;SDS011;31340;51.402;0.016;2023-11-19T09:20:24;32.45;;;4.95;;
44774;SDS011;31340;51.402;0.016;2023-11-19T09:22:52;32.97;;;6.03;;
44774;SDS011;31340;51.402;0.016;2023-11-19T09:25:20;28.80;;;5.25;;
44774;SDS011;31340;51.402;0.016;2023-11-19T09:27:47;38.22;;;7.72;;
44774;SDS011;31340;51.402;0.016;2023-11-19T09:30:15;41.03;;;5.25;;
44774;SDS011;31340;51.402;0.016;2023-11-19T09:32:43;36.10;;;6.18;;
44774;SDS011;31340;51.402;0.016;2023-11-19T09:35:11;29.27;;;5.88;;
44774;SDS011;31340;51.402;0.016;2023-11-19T09:37:42;36.63;;;6.03;;
44774;SDS011;31340;51.402;0.016;2023-11-19T09:40:10;37.30;;;6.45;;
44774;SDS011;31340;51.402;0.016;2023-11-19T09:42:44;32.38;;;6.18;;
44774;SDS011;31340;51.402;0.016;2023-11-19T09:45:13;40.10;;;6.53;;
44774;SDS011;31340;51.402;0.016;2023-11-19T09:47:43;24.88;;;5.80;;
44774;SDS011;31340;51.402;0.016;2023-11-19T09:50:18;32.03;;;5.60;;
44774;SDS011;31340;51.402;0.016;2023-11-19T09:52:46;34.45;;;6.32;;
44774;SDS011;31340;51.402;0.016;2023-11-19T09:55:15;28.35;;;5.20;;
44774;SDS011;31340;51.402;0.016;2023-11-19T09:57:42;33.15;;;5.25;;
44774;SDS011;31340;51.402;0.016;2023-11-19T10:00:12;37.85;;;5.63;;
44774;SDS011;31340;51.402;0.016;2023-11-19T10:02:42;30.42;;;5.22;;
44774;SDS011;31340;51.402;0.016;2023-11-19T10:05:14;35.45;;;5.50;;
44774;SDS011;31340;51.402;0.016;2023-11-19T10:07:42;40.75;;;6.20;;
44774;SDS011;31340;51.402;0.016;2023-11-19T10:10:12;36.80;;;6.63;;
44774;SDS011;31340;51.402;0.016;2023-11-19T10:12:45;27.58;;;4.88;;
44774;SDS011;31340;51.402;0.016;2023-11-19T10:15:25;29.10;;;5.30;;
44774;SDS011;31340;51.402;0.016;2023-11-19T10:17:55;28.60;;;5.32;;
44774;SDS011;31340;51.402;0.016;2023-11-19T10:20:23;34.20;;;4.70;;
44774;SDS011;31340;51.402;0.016;2023-11-19T10:22:55;22.35;;;4.38;;
44774;SDS011;31340;51.402;0.016;2023-11-19T10:25:26;27.55;;;5.53;;
44774;SDS011;31340;51.402;0.016;2023-11-19T10:27:57;30.63;;;4.90;;
44774;SDS011;31340;51.402;0.016;2023-11-19T10:30:26;35.83;;;6.10;;
44774;SDS011;31340;51.402;0.016;2023-11-19T10:35:37;25.08;;;4.55;;
44774;SDS011;31340;51.402;0.016;2023-11-19T10:38:24;25.23;;;4.30;;
44774;SDS011;31340;51.402;0.016;2023-11-19T10:40:53;26.17;;;4.25;;
44774;SDS011;31340;51.402;0.016;2023-11-19T10:45:52;20.80;;;4.55;;
44774;SDS011;31340;51.402;0.016;2023-11-19T10:48:20;25.55;;;4.57;;
44774;SDS011;31340;51.402;0.016;2023-11-19T10:50:53;22.40;;;4.78;;
44774;SDS011;31340;51.402;0.016;2023-11-19T10:53:22;26.60;;;3.63;;
44774;SDS011;31340;51.402;0.016;2023-11-19T10:58:25;22.10;;;3.50;;
44774;SDS011;31340;51.402;0.016;2023-11-19T11:00:57;18.95;;;4.55;;
44774;SDS011;31340;51.402;0.016;2023-11-19T11:03:30;21.33;;;3.63;;
44774;SDS011;31340;51.402;0.016;2023-11-19T11:06:06;22.88;;;3.72;;
44774;SDS011;31340;51.402;0.016;2023-11-19T11:08:39;23.67;;;4.53;;
44774;SDS011;31340;51.402;0.016;2023-11-19T11:13:34;26.48;;;5.18;;
44774;SDS011;31340;51.402;0.016;2023-11-19T11:16:04;28.90;;;5.10;;
44774;SDS011;31340;51.402;0.016;2023-11-19T11:18:35;25.10;;;4.45;;
44774;SDS011;31340;51.402;0.016;2023-11-19T11:21:04;22.23;;;4.10;;
44774;SDS011;31340;51.402;0.016;2023-11-19T11:29:27;23.42;;;4.07;;
44774;SDS011;31340;51.402;0.016;2023-11-19T11:39:52;21.60;;;4.95;;
44774;SDS011;31340;51.402;0.016;2023-11-19T11:58:30;21.33;;;4.45;;
44774;SDS011;31340;51.402;0.016;2023-11-19T12:00:59;24.63;;;4.10;;
44774;SDS011;31340;51.402;0.016;2023-11-19T12:03:28;18.88;;;4.82;;
44774;SDS011;31340;51.402;0.016;2023-11-19T12:05:57;18.60;;;2.88;;
44774;SDS011;31340;51.402;0.016;2023-11-19T12:08:26;24.00;;;4.53;;
44774;SDS011;31340;51.402;0.016;2023-11-19T12:10:55;24.85;;;4.03;;
44774;SDS011;31340;51.402;0.016;2023-11-19T12:13:29;20.63;;;4.28;;
44774;SDS011;31340;51.402;0.016;2023-11-19T12:16:14;23.52;;;4.20;;
44774;SDS011;31340;51.402;0.016;2023-11-19T12:18:41;23.52;;;4.25;;
44774;SDS011;31340;51.402;0.016;2023-11-19T12:21:09;23.15;;;3.88;;
44774;SDS011;31340;51.402;0.016;2023-11-19T12:23:44;21.85;;;4.13;;
44774;SDS011;31340;51.402;0.016;2023-11-19T12:26:31;22.80;;;4.60;;
44774;SDS011;31340;51.402;0.016;2023-11-19T12:29:03;20.98;;;4.18;;
44774;SDS011;31340;51.402;0.016;2023-11-19T12:31:35;24.85;;;3.83;;
44774;SDS011;31340;51.402;0.016;2023-11-19T12:34:06;22.25;;;3.92;;
44774;SDS011;31340;51.402;0.016;2023-11-19T12:36:39;19.90;;;3.47;;
44774;SDS011;31340;51.402;0.016;2023-11-19T12:39:08;17.67;;;3.20;;
44774;SDS011;31340;51.402;0.016;2023-11-19T12:41:49;20.13;;;3.90;;
44774;SDS011;31340;51.402;0.016;2023-11-19T12:44:18;17.08;;;3.53;;
44774;SDS011;31340;51.402;0.016;2023-11-19T12:46:45;23.42;;;4.15;;
44774;SDS011;31340;51.402;0.016;2023-11-19T12:49:13;23.08;;;4.43;;
44774;SDS011;31340;51.402;0.016;2023-11-19T12:51:40;22.45;;;4.80;;
44774;SDS011;31340;51.402;0.016;2023-11-19T12:54:08;26.77;;;5.35;;
44774;SDS011;31340;51.402;0.016;2023-11-19T12:56:35;25.48;;;4.85;;
44774;SDS011;31340;51.402;0.016;2023-11-19T12:59:11;25.70;;;5.38;;
44774;SDS011;31340;51.402;0.016;2023-11-19T13:01:39;24.50;;;3.67;;
44774;SDS011;31340;51.402;0.016;2023-11-19T13:04:17;25.50;;;5.32;;
44774;SDS011;31340;51.402;0.016;2023-11-19T13:06:46;20.65;;;4.25;;
44774;SDS011;31340;51.402;0.016;2023-11-19T13:09:31;17.50;;;2.88;;
44774;SDS011;31340;51.402;0.016;2023-11-19T13:11:59;16.90;;;3.65;;
44774;SDS011;31340;51.402;0.016;2023-11-19T13:14:39;19.67;;;3.63;;
44774;SDS011;31340;51.402;0.016;2023-11-19T13:17:12;18.35;;;4.15;;
44774;SDS011;31340;51.402;0.016;2023-11-19T13:19:41;15.25;;;3.47;;
44774;SDS011;31340;51.402;0.016;2023-11-19T13:22:08;13.82;;;2.67;;
44774;SDS011;31340;51.402;0.016;2023-11-19T13:24:36;17.52;;;2.58;;
44774;SDS011;31340;51.402;0.016;2023-11-19T13:27:04;15.00;;;3.85;;
44774;SDS011;31340;51.402;0.016;2023-11-19T13:29:32;13.75;;;3.10;;
44774;SDS011;31340;51.402;0.016;2023-11-19T13:32:01;16.73;;;2.72;;
44774;SDS011;31340;51.402;0.016;2023-11-19T13:34:31;15.57;;;2.65;;
44774;SDS011;31340;51.402;0.016;2023-11-19T13:36:58;19.65;;;3.00;;
44774;SDS011;31340;51.402;0.016;2023-11-19T13:39:26;14.23;;;2.60;;
44774;SDS011;31340;51.402;0.016;2023-11-19T13:41:54;15.45;;;3.83;;
44774;SDS011;31340;51.402;0.016;2023-11-19T13:44:39;21.15;;;3.13;;
44774;SDS011;31340;51.402;0.016;2023-11-19T13:47:08;14.43;;;2.72;;
44774;SDS011;31340;51.402;0.016;2023-11-19T13:49:36;18.00;;;3.30;;
44774;SDS011;31340;51.402;0.016;2023-11-19T13:52:04;19.52;;;3.05;;
44774;SDS011;31340;51.402;0.016;2023-11-19T13:54:32;13.25;;;3.10;;
44774;SDS011;31340;51.402;0.016;2023-11-19T13:56:59;20.00;;;3.63;;
44774;SDS011;31340;51.402;0.016;2023-11-19T13:59:27;19.35;;;3.25;;
44774;SDS011;31340;51.402;0.016;2023-11-19T14:01:55;13.93;;;2.60;;
44774;SDS011;31340;51.402;0.016;2023-11-19T14:04:22;18.45;;;3.58;;
44774;SDS011;31340;51.402;0.016;2023-11-19T14:06:51;12.75;;;3.03;;
44774;SDS011;31340;51.402;0.016;2023-11-19T14:09:18;15.15;;;2.72;;
44774;SDS011;31340;51.402;0.016;2023-11-19T14:11:46;11.88;;;2.55;;
44774;SDS011;31340;51.402;0.016;2023-11-19T14:14:14;20.55;;;3.88;;
44774;SDS011;31340;51.402;0.016;2023-11-19T14:16:41;14.88;;;3.55;;
44774;SDS011;31340;51.402;0.016;2023-11-19T14:19:09;17.23;;;2.80;;
44774;SDS011;31340;51.402;0.016;2023-11-19T14:21:36;15.93;;;2.97;;
44774;SDS011;31340;51.402;0.016;2023-11-19T14:24:04;15.07;;;3.42;;
44774;SDS011;31340;51.402;0.016;2023-11-19T14:26:32;17.83;;;3.55;;
44774;SDS011;31340;51.402;0.016;2023-11-19T14:28:59;11.18;;;2.88;;
44774;SDS011;31340;51.402;0.016;2023-11-19T14:31:30;14.30;;;2.60;;
44774;SDS011;31340;51.402;0.016;2023-11-19T14:33:57;13.65;;;2.80;;
44774;SDS011;31340;51.402;0.016;2023-11-19T14:36:25;13.10;;;2.60;;
44774;SDS011;31340;51.402;0.016;2023-11-19T14:38:54;16.30;;;2.88;;
44774;SDS011;31340;51.402;0.016;2023-11-19T14:41:21;10.50;;;2.30;;
44774;SDS011;31340;51.402;0.016;2023-11-19T14:43:49;14.07;;;2.83;;
44774;SDS011;31340;51.402;0.016;2023-11-19T14:46:17;14.32;;;3.15;;
44774;SDS011;31340;51.402;0.016;2023-11-19T14:48:44;9.52;;;2.83;;
44774;SDS011;31340;51.402;0.016;2023-11-19T14:51:12;18.33;;;4.53;;
44774;SDS011;31340;51.402;0.016;2023-11-19T14:53:39;18.05;;;3.28;;
44774;SDS011;31340;51.402;0.016;2023-11-19T14:56:10;16.52;;;3.70;;
44774;SDS011;31340;51.402;0.016;2023-11-19T14:58:39;11.40;;;2.42;;
44774;SDS011;31340;51.402;0.016;2023-11-19T15:01:12;8.82;;;2.90;;
44774;SDS011;31340;51.402;0.016;2023-11-19T15:03:40;7.38;;;2.42;;
44774;SDS011;31340;51.402;0.016;2023-11-19T15:06:10;8.98;;;2.25;;
44774;SDS011;31340;51.402;0.016;2023-11-19T15:08:38;13.65;;;2.60;;
44774;SDS011;31340;51.402;0.016;2023-11-19T15:11:06;13.48;;;3.00;;
44774;SDS011;31340;51.402;0.016;2023-11-19T15:13:33;12.48;;;2.42;;
44774;SDS011;31340;51.402;0.016;2023-11-19T15:16:04;16.65;;;2.92;;
44774;SDS011;31340;51.402;0.016;2023-11-19T15:18:37;10.95;;;2.40;;
44774;SDS011;31340;51.402;0.016;2023-11-19T15:21:05;12.38;;;2.30;;
44774;SDS011;31340;51.402;0.016;2023-11-19T15:23:32;12.20;;;3.00;;
44774;SDS011;31340;51.402;0.016;2023-11-19T15:26:00;12.23;;;2.60;;
44774;SDS011;31340;51.402;0.016;2023-11-19T15:28:28;13.32;;;4.10;;
44774;SDS011;31340;51.402;0.016;2023-11-19T15:30:56;13.88;;;3.35;;